createdAt,value
2018-08-22T00:01:54.302Z,99.90
2018-08-22T00:04:23.081Z,99.90
2018-08-22T00:06:51.926Z,99.90
2018-08-22T00:09:20.739Z,99.90
2018-08-22T00:11:49.523Z,99.90
2018-08-22T00:14:18.328Z,99.90
2018-08-22T00:16:47.184Z,99.90
2018-08-22T00:19:15.978Z,99.90
2018-08-22T00:21:44.767Z,99.90
2018-08-22T00:24:13.568Z,99.90
2018-08-22T00:26:42.364Z,99.90
2018-08-22T00:29:11.248Z,99.90
2018-08-22T00:31:40.016Z,99.90
2018-08-22T00:34:08.875Z,99.90
2018-08-22T00:36:37.751Z,99.90
2018-08-22T00:39:07.170Z,99.90
2018-08-22T00:41:35.947Z,99.90
2018-08-22T00:44:04.782Z,99.90
2018-08-22T00:46:33.609Z,99.90
2018-08-22T00:49:02.569Z,99.90
2018-08-22T00:51:31.379Z,99.90
2018-08-22T00:54:00.287Z,99.90
2018-08-22T00:56:29.106Z,99.90
2018-08-22T00:58:57.913Z,99.90
2018-08-22T01:01:26.700Z,99.90
2018-08-22T01:03:55.556Z,99.90
2018-08-22T01:06:24.369Z,99.90
2018-08-22T01:08:53.191Z,99.90
2018-08-22T01:11:22.059Z,99.90
2018-08-22T01:13:50.919Z,99.90
2018-08-22T01:16:19.703Z,99.90
2018-08-22T01:18:49.139Z,99.90
2018-08-22T01:21:17.933Z,99.90
2018-08-22T01:23:46.776Z,99.90
2018-08-22T01:26:18.514Z,99.90
2018-08-22T01:28:47.328Z,99.90
2018-08-22T01:31:16.115Z,99.90
2018-08-22T01:33:44.951Z,99.90
2018-08-22T01:36:13.735Z,99.90
2018-08-22T01:38:42.536Z,99.90
2018-08-22T01:41:11.328Z,99.90
2018-08-22T01:43:40.105Z,99.90
2018-08-22T01:46:08.875Z,99.90
2018-08-22T01:48:37.677Z,99.90
2018-08-22T01:51:06.525Z,99.90
2018-08-22T01:53:35.280Z,99.90
2018-08-22T01:56:04.232Z,99.90
2018-08-22T01:58:33.095Z,99.90
2018-08-22T02:01:01.911Z,99.90
2018-08-22T02:03:30.677Z,99.90
2018-08-22T02:05:59.484Z,99.90
2018-08-22T02:08:28.273Z,99.90
2018-08-22T02:10:57.048Z,99.90
2018-08-22T02:13:25.824Z,99.90
2018-08-22T02:15:54.674Z,99.90
2018-08-22T02:18:23.536Z,99.90
2018-08-22T02:20:52.459Z,99.90
2018-08-22T02:23:21.263Z,99.90
2018-08-22T02:25:50.452Z,99.90
2018-08-22T02:28:19.246Z,99.90
2018-08-22T02:30:48.051Z,99.90
2018-08-22T02:33:16.868Z,99.90
2018-08-22T02:35:45.929Z,99.90
2018-08-22T02:38:18.985Z,99.90
2018-08-22T02:40:47.771Z,99.90
2018-08-22T02:43:16.588Z,99.90
2018-08-22T02:45:45.384Z,99.90
2018-08-22T02:48:14.435Z,99.90
2018-08-22T02:50:43.232Z,99.90
2018-08-22T02:53:12.116Z,99.90
2018-08-22T02:55:41.320Z,99.90
2018-08-22T02:58:10.399Z,99.90
2018-08-22T03:00:39.244Z,99.90
2018-08-22T03:03:08.224Z,99.90
2018-08-22T03:05:37.064Z,99.90
2018-08-22T03:08:06.079Z,99.90
2018-08-22T03:10:35.926Z,99.90
2018-08-22T03:13:05.040Z,99.90
2018-08-22T03:15:33.843Z,99.90
2018-08-22T03:18:02.659Z,99.90
2018-08-22T03:20:31.500Z,99.90
2018-08-22T03:23:00.347Z,99.90
2018-08-22T03:25:29.208Z,99.90
2018-08-22T03:27:58.007Z,99.90
2018-08-22T03:30:26.788Z,99.90
2018-08-22T03:32:55.572Z,99.90
2018-08-22T03:35:24.371Z,99.90
2018-08-22T03:37:53.144Z,99.90
2018-08-22T03:40:21.936Z,99.90
2018-08-22T03:42:50.711Z,99.90
2018-08-22T03:45:19.483Z,99.90
2018-08-22T03:47:48.251Z,99.90
2018-08-22T03:50:17.055Z,99.90
2018-08-22T03:52:45.832Z,99.90
2018-08-22T03:55:14.623Z,99.90
2018-08-22T03:57:43.411Z,99.90
2018-08-22T04:00:12.365Z,99.90
2018-08-22T04:02:41.472Z,99.90
2018-08-22T04:05:10.407Z,99.90
2018-08-22T04:07:39.180Z,99.90
2018-08-22T04:10:08.021Z,99.90
2018-08-22T04:12:36.795Z,99.90
2018-08-22T04:15:05.752Z,99.90
2018-08-22T04:17:36.913Z,99.90
2018-08-22T04:20:06.392Z,99.90
2018-08-22T04:22:36.539Z,99.90
2018-08-22T04:25:05.315Z,99.90
2018-08-22T04:27:34.115Z,99.90
2018-08-22T04:30:02.970Z,99.90
2018-08-22T04:32:31.747Z,99.90
2018-08-22T04:35:00.528Z,99.90
2018-08-22T04:37:29.386Z,99.90
2018-08-22T04:39:58.123Z,99.90
2018-08-22T04:42:26.905Z,99.90
2018-08-22T04:44:55.683Z,99.90
2018-08-22T04:47:24.464Z,99.90
2018-08-22T04:49:54.297Z,99.90
2018-08-22T04:52:23.113Z,99.90
2018-08-22T04:54:51.951Z,99.90
2018-08-22T04:57:20.748Z,99.90
2018-08-22T04:59:49.516Z,99.90
2018-08-22T05:02:18.319Z,99.90
2018-08-22T05:04:47.096Z,99.90
2018-08-22T05:07:16.516Z,99.90
2018-08-22T05:09:45.307Z,99.90
2018-08-22T05:12:14.101Z,99.90
2018-08-22T05:14:42.872Z,99.90
2018-08-22T05:17:11.663Z,99.90
2018-08-22T05:19:40.451Z,99.90
2018-08-22T05:22:09.357Z,99.90
2018-08-22T05:24:38.142Z,99.90
2018-08-22T05:27:06.951Z,99.90
2018-08-22T05:29:35.754Z,99.90
2018-08-22T05:32:04.946Z,99.90
2018-08-22T05:34:34.060Z,99.90
2018-08-22T05:37:02.945Z,99.90
2018-08-22T05:39:31.704Z,99.90
2018-08-22T05:42:00.496Z,99.90
2018-08-22T05:44:29.282Z,99.90
2018-08-22T05:46:58.074Z,99.90
2018-08-22T05:49:26.853Z,99.90
2018-08-22T05:51:55.796Z,99.90
2018-08-22T05:54:24.584Z,99.90
2018-08-22T05:56:53.930Z,99.90
2018-08-22T05:59:22.695Z,99.90
2018-08-22T06:01:51.592Z,99.90
2018-08-22T06:04:20.356Z,99.90
2018-08-22T06:06:49.143Z,99.90
2018-08-22T06:09:18.013Z,99.90
2018-08-22T06:11:46.717Z,99.90
2018-08-22T06:14:15.508Z,99.90
2018-08-22T06:16:44.496Z,99.90
2018-08-22T06:19:13.259Z,99.90
2018-08-22T06:21:42.076Z,99.90
2018-08-22T06:24:10.863Z,99.90
2018-08-22T06:26:39.711Z,99.90
2018-08-22T06:29:08.539Z,99.90
2018-08-22T06:31:37.317Z,99.90
2018-08-22T06:34:06.213Z,99.90
2018-08-22T06:36:35.055Z,99.90
2018-08-22T06:39:06.097Z,99.90
2018-08-22T06:41:34.887Z,99.90
2018-08-22T06:44:03.726Z,99.90
2018-08-22T06:46:32.503Z,99.90
2018-08-22T06:49:01.291Z,99.90
2018-08-22T06:51:30.359Z,99.90
2018-08-22T06:54:04.539Z,99.90
2018-08-22T06:56:38.055Z,99.90
2018-08-22T06:59:08.023Z,99.90
2018-08-22T07:01:45.283Z,99.90
2018-08-22T07:04:16.364Z,99.90
2018-08-22T07:06:48.670Z,99.90
2018-08-22T07:09:20.896Z,99.90
2018-08-22T07:11:57.051Z,99.90
2018-08-22T07:14:27.064Z,99.90
2018-08-22T07:16:59.573Z,99.90
2018-08-22T07:19:28.876Z,99.90
2018-08-22T07:22:06.025Z,99.90
2018-08-22T07:24:42.747Z,99.90
2018-08-22T07:27:16.252Z,99.90
2018-08-22T07:29:45.072Z,99.90
2018-08-22T07:32:18.635Z,99.90
2018-08-22T07:34:52.685Z,99.90
2018-08-22T07:37:21.523Z,99.90
2018-08-22T07:39:54.749Z,99.90
2018-08-22T07:45:02.849Z,99.90
2018-08-22T07:47:31.861Z,99.90
2018-08-22T07:50:00.656Z,99.90
2018-08-22T07:52:29.440Z,99.90
2018-08-22T07:54:58.217Z,99.90
2018-08-22T07:57:27.003Z,99.90
2018-08-22T07:59:56.265Z,99.90
2018-08-22T08:02:25.036Z,99.90
2018-08-22T08:04:53.840Z,99.90
2018-08-22T08:07:22.653Z,99.90
2018-08-22T08:09:51.396Z,99.90
2018-08-22T08:12:22.768Z,99.90
2018-08-22T08:14:56.997Z,99.90
2018-08-22T08:17:26.096Z,99.90
2018-08-22T08:19:54.888Z,99.90
2018-08-22T08:22:23.668Z,99.90
2018-08-22T08:24:52.455Z,99.90
2018-08-22T08:27:21.363Z,99.90
2018-08-22T08:29:50.751Z,99.90
2018-08-22T08:32:19.519Z,99.90
2018-08-22T08:34:48.294Z,99.90
2018-08-22T08:37:17.075Z,99.30
2018-08-22T08:39:45.887Z,99.50
2018-08-22T08:42:14.655Z,99.30
2018-08-22T08:44:43.420Z,99.00
2018-08-22T08:47:12.253Z,98.70
2018-08-22T08:49:41.194Z,98.70
2018-08-22T08:52:09.802Z,98.20
2018-08-22T08:54:38.775Z,97.80
2018-08-22T08:57:07.631Z,98.00
2018-08-22T08:59:36.380Z,98.10
2018-08-22T09:02:05.155Z,98.20
2018-08-22T09:04:33.938Z,98.50
2018-08-22T09:07:02.744Z,98.30
2018-08-22T09:09:31.524Z,97.90
2018-08-22T09:12:01.117Z,97.80
2018-08-22T09:14:30.301Z,97.10
2018-08-22T09:16:59.716Z,97.40
2018-08-22T09:19:28.521Z,96.90
2018-08-22T09:21:57.315Z,96.00
2018-08-22T09:24:26.112Z,96.10
2018-08-22T09:26:54.876Z,95.80
2018-08-22T09:29:24.751Z,96.10
2018-08-22T09:31:53.568Z,96.20
2018-08-22T09:34:22.371Z,95.40
2018-08-22T09:36:51.131Z,96.20
2018-08-22T09:39:19.952Z,95.00
2018-08-22T09:41:48.697Z,94.30
2018-08-22T09:44:17.485Z,94.50
2018-08-22T09:46:46.336Z,95.40
2018-08-22T09:49:15.079Z,96.10
2018-08-22T09:51:43.872Z,94.20
2018-08-22T09:54:12.673Z,93.10
2018-08-22T09:56:41.519Z,92.70
2018-08-22T09:59:10.404Z,93.20
2018-08-22T10:01:44.256Z,92.00
2018-08-22T10:04:13.044Z,92.00
2018-08-22T10:06:43.128Z,91.10
2018-08-22T10:09:19.401Z,91.80
2018-08-22T10:11:48.410Z,91.10
2018-08-22T10:14:17.204Z,91.50
2018-08-22T10:16:46.049Z,90.60
2018-08-22T10:19:14.799Z,90.50
2018-08-22T10:21:43.611Z,88.80
2018-08-22T10:24:12.630Z,87.90
2018-08-22T10:26:41.976Z,88.70
2018-08-22T10:29:10.752Z,87.80
2018-08-22T10:31:39.768Z,86.50
2018-08-22T10:34:08.573Z,87.20
2018-08-22T10:36:37.360Z,85.70
2018-08-22T10:39:07.998Z,85.10
2018-08-22T10:41:36.774Z,84.40
2018-08-22T10:44:05.852Z,84.10
2018-08-22T10:46:34.640Z,85.00
2018-08-22T10:49:03.603Z,85.30
2018-08-22T10:51:32.388Z,85.60
2018-08-22T10:54:01.239Z,80.40
2018-08-22T10:56:30.346Z,82.40
2018-08-22T10:58:59.116Z,83.20
2018-08-22T11:01:27.882Z,80.30
2018-08-22T11:03:56.696Z,80.10
2018-08-22T11:06:25.531Z,78.50
2018-08-22T11:08:54.312Z,79.10
2018-08-22T11:11:23.112Z,76.70
2018-08-22T11:13:51.914Z,81.30
2018-08-22T11:16:20.795Z,79.00
2018-08-22T11:18:49.605Z,78.20
2018-08-22T11:21:29.775Z,78.60
2018-08-22T11:24:09.932Z,75.50
2018-08-22T11:26:50.187Z,72.60
2018-08-22T11:29:30.292Z,72.60
2018-08-22T11:32:10.569Z,74.40
2018-08-22T11:34:43.651Z,72.60
2018-08-22T11:37:13.671Z,73.70
2018-08-22T11:39:44.015Z,71.70
2018-08-22T11:42:12.809Z,72.30
2018-08-22T11:44:41.632Z,71.70
2018-08-22T11:47:10.447Z,72.60
2018-08-22T11:49:39.240Z,71.90
2018-08-22T11:52:08.051Z,70.90
2018-08-22T11:54:36.853Z,70.00
2018-08-22T11:57:05.768Z,69.70
2018-08-22T11:59:34.563Z,69.90
2018-08-22T12:02:03.479Z,69.30
2018-08-22T12:04:32.172Z,68.20
2018-08-22T12:07:00.984Z,69.20
2018-08-22T12:09:29.753Z,68.20
2018-08-22T12:14:33.595Z,69.60
2018-08-22T12:17:02.385Z,67.20
2018-08-22T12:19:31.517Z,64.90
2018-08-22T12:22:00.384Z,65.30
2018-08-22T12:24:29.164Z,67.30
2018-08-22T12:26:57.987Z,65.30
2018-08-22T12:29:26.793Z,66.10
2018-08-22T12:31:55.587Z,64.30
2018-08-22T12:34:24.367Z,64.00
2018-08-22T12:36:53.216Z,63.60
2018-08-22T12:39:22.037Z,61.00
2018-08-22T12:41:50.848Z,61.00
2018-08-22T12:44:19.657Z,60.40
2018-08-22T12:46:48.455Z,59.90
2018-08-22T12:49:17.240Z,60.60
2018-08-22T12:51:46.021Z,61.00
2018-08-22T12:54:14.820Z,61.10
2018-08-22T12:56:43.643Z,58.60
2018-08-22T12:59:12.487Z,57.80
2018-08-22T13:01:41.284Z,58.60
2018-08-22T13:04:10.056Z,58.30
2018-08-22T13:06:38.860Z,58.20
2018-08-22T13:09:08.728Z,56.10
2018-08-22T13:11:37.540Z,56.00
2018-08-22T13:14:06.504Z,57.60
2018-08-22T13:16:35.295Z,56.30
2018-08-22T13:19:04.085Z,57.30
2018-08-22T13:21:32.898Z,56.30
2018-08-22T13:24:01.770Z,56.60
2018-08-22T13:26:30.492Z,55.90
2018-08-22T13:28:59.295Z,56.00
2018-08-22T13:31:28.083Z,56.20
2018-08-22T13:33:57.223Z,55.80
2018-08-22T13:36:26.025Z,55.60
2018-08-22T13:38:54.815Z,55.60
2018-08-22T13:41:23.605Z,55.70
2018-08-22T13:43:52.389Z,56.60
2018-08-22T13:46:21.195Z,56.40
2018-08-22T13:48:49.988Z,55.40
2018-08-22T13:51:18.799Z,54.40
2018-08-22T13:53:47.600Z,55.30
2018-08-22T13:56:16.455Z,55.50
2018-08-22T13:58:45.200Z,56.60
2018-08-22T14:01:14.503Z,57.20
2018-08-22T14:03:43.339Z,57.20
2018-08-22T14:06:12.267Z,57.60
2018-08-22T14:08:41.071Z,58.40
2018-08-22T14:11:09.861Z,58.50
2018-08-22T14:13:38.659Z,58.20
2018-08-22T14:16:07.575Z,57.30
2018-08-22T14:18:36.331Z,58.60
2018-08-22T14:21:05.139Z,58.50
2018-08-22T14:23:33.928Z,59.20
2018-08-22T14:26:02.767Z,67.80
2018-08-22T14:28:31.578Z,70.20
2018-08-22T14:31:00.375Z,72.00
2018-08-22T14:33:29.204Z,73.40
2018-08-22T14:35:58.544Z,76.60
2018-08-22T14:38:27.353Z,78.40
2018-08-22T14:40:56.160Z,83.30
2018-08-22T14:43:24.985Z,82.60
2018-08-22T14:45:53.783Z,79.30
2018-08-22T14:48:22.589Z,82.80
2018-08-22T14:50:51.375Z,84.80
2018-08-22T14:53:20.176Z,87.30
2018-08-22T14:55:49.520Z,89.20
2018-08-22T14:58:18.567Z,90.40
2018-08-22T15:00:47.428Z,90.70
2018-08-22T15:03:16.489Z,88.60
2018-08-22T15:05:45.019Z,90.20
2018-08-22T15:08:13.831Z,87.40
2018-08-22T15:10:45.939Z,86.70
2018-08-22T15:13:14.730Z,87.80
2018-08-22T15:15:43.899Z,86.60
2018-08-22T15:18:12.817Z,89.70
2018-08-22T15:20:45.200Z,91.00
2018-08-22T15:23:14.015Z,93.30
2018-08-22T15:25:42.784Z,93.00
2018-08-22T15:28:11.739Z,94.00
2018-08-22T15:30:41.538Z,94.90
2018-08-22T15:33:10.316Z,91.40
2018-08-22T15:35:39.172Z,90.90
2018-08-22T15:38:08.064Z,90.20
2018-08-22T15:40:36.918Z,91.00
2018-08-22T15:43:06.203Z,88.20
2018-08-22T15:45:35.019Z,86.10
2018-08-22T15:48:04.102Z,84.90
2018-08-22T15:50:32.876Z,83.40
2018-08-22T15:53:01.686Z,84.20
2018-08-22T15:55:30.493Z,85.60
2018-08-22T15:58:03.999Z,85.60
2018-08-22T16:00:49.616Z,83.90
2018-08-22T16:03:18.503Z,82.20
2018-08-22T16:05:48.135Z,80.90
2018-08-22T16:08:17.679Z,79.50
2018-08-22T16:10:46.543Z,79.50
2018-08-22T16:13:20.747Z,80.30
2018-08-22T16:15:51.256Z,82.40
2018-08-22T16:18:20.403Z,82.90
2018-08-22T16:20:55.211Z,83.60
2018-08-22T16:23:25.596Z,81.70
2018-08-22T16:25:55.125Z,82.30
2018-08-22T16:28:24.524Z,82.60
2018-08-22T16:30:57.578Z,81.50
2018-08-22T16:33:23.704Z,81.70
2018-08-22T16:35:52.633Z,82.60
2018-08-22T16:38:21.431Z,82.50
2018-08-22T16:40:51.751Z,82.00
2018-08-22T16:43:39.016Z,81.70
2018-08-22T16:46:11.437Z,81.00
2018-08-22T16:48:40.935Z,78.10
2018-08-22T16:51:09.853Z,78.50
2018-08-22T16:53:38.675Z,78.30
2018-08-22T16:56:07.494Z,76.40
2018-08-22T16:58:36.296Z,76.80
2018-08-22T17:01:05.178Z,73.40
2018-08-22T17:03:33.983Z,73.50
2018-08-22T17:06:12.321Z,73.80
2018-08-22T17:08:41.128Z,75.60
2018-08-22T17:11:11.095Z,77.40
2018-08-22T17:13:45.215Z,78.40
2018-08-22T17:16:14.047Z,80.60
2018-08-22T17:18:42.892Z,83.60
2018-08-22T17:21:11.927Z,84.90
2018-08-22T17:23:41.079Z,85.50
2018-08-22T17:26:15.096Z,88.60
2018-08-22T17:28:46.949Z,90.10
2018-08-22T17:31:16.667Z,90.90
2018-08-22T17:33:49.311Z,90.90
2018-08-22T17:36:18.154Z,91.00
2018-08-22T17:38:48.288Z,90.80
2018-08-22T17:41:17.879Z,91.20
2018-08-22T17:43:58.078Z,91.20
2018-08-22T17:46:28.565Z,91.10
2018-08-22T17:48:57.756Z,91.50
2018-08-22T17:51:26.647Z,92.00
2018-08-22T17:53:55.426Z,92.70
2018-08-22T17:56:25.305Z,92.60
2018-08-22T17:58:55.041Z,92.60
2018-08-22T18:01:24.392Z,92.80
2018-08-22T18:03:55.329Z,93.20
2018-08-22T18:06:24.320Z,93.10
2018-08-22T18:08:53.135Z,93.60
2018-08-22T18:11:21.971Z,94.00
2018-08-22T18:13:50.805Z,94.50
2018-08-22T18:16:19.551Z,94.80
2018-08-22T18:18:49.900Z,95.00
2018-08-22T18:21:18.779Z,95.60
2018-08-22T18:23:53.811Z,95.40
2018-08-22T18:26:22.608Z,95.70
2018-08-22T18:28:51.403Z,95.90
2018-08-22T18:31:20.216Z,95.80
2018-08-22T18:34:00.784Z,95.90
2018-08-22T18:36:30.596Z,96.40
2018-08-22T18:39:05.660Z,96.70
2018-08-22T18:41:34.612Z,97.00
2018-08-22T18:44:03.607Z,97.40
2018-08-22T18:46:32.437Z,97.90
2018-08-22T18:49:03.135Z,97.90
2018-08-22T18:51:32.502Z,97.80
2018-08-22T18:54:03.091Z,98.30
2018-08-22T18:56:31.995Z,98.20
2018-08-22T18:59:12.212Z,98.40
2018-08-22T19:01:41.077Z,98.60
2018-08-22T19:04:09.917Z,98.70
2018-08-22T19:06:38.770Z,98.70
2018-08-22T19:09:07.828Z,99.10
2018-08-22T19:11:36.603Z,99.00
2018-08-22T19:14:05.470Z,99.00
2018-08-22T19:16:34.259Z,99.20
2018-08-22T19:19:03.631Z,99.20
2018-08-22T19:21:32.587Z,99.30
2018-08-22T19:24:04.481Z,99.40
2018-08-22T19:26:33.407Z,99.50
2018-08-22T19:29:04.161Z,99.60
2018-08-22T19:31:33.064Z,99.60
2018-08-22T19:34:01.916Z,99.70
2018-08-22T19:36:30.696Z,99.80
2018-08-22T19:38:59.549Z,99.70
2018-08-22T19:41:32.574Z,99.80
2018-08-22T19:44:01.391Z,99.80
2018-08-22T19:46:30.300Z,99.90
2018-08-22T19:49:00.636Z,99.90
2018-08-22T19:51:29.653Z,99.70
2018-08-22T19:54:02.403Z,99.90
2018-08-22T19:56:31.473Z,99.90
2018-08-22T19:59:00.889Z,99.90
2018-08-22T20:01:31.812Z,99.90
2018-08-22T20:04:00.675Z,99.90
2018-08-22T20:06:29.537Z,99.90
2018-08-22T20:09:00.167Z,99.90
2018-08-22T20:11:31.622Z,99.90
2018-08-22T20:14:02.408Z,99.90
2018-08-22T20:16:31.246Z,99.90
2018-08-22T20:19:01.344Z,99.90
2018-08-22T20:21:34.391Z,99.90
2018-08-22T20:24:04.509Z,99.90
2018-08-22T20:26:33.808Z,99.90
2018-08-22T20:29:03.636Z,99.90
2018-08-22T20:31:33.616Z,99.90
2018-08-22T20:34:07.022Z,99.90
2018-08-22T20:36:35.885Z,99.90
2018-08-22T20:39:08.520Z,99.90
2018-08-22T20:41:38.021Z,99.90
2018-08-22T20:44:08.080Z,99.90
2018-08-22T20:46:36.858Z,99.90
2018-08-22T20:49:05.714Z,99.90
2018-08-22T20:51:34.608Z,99.90
2018-08-22T20:54:07.084Z,99.90
2018-08-22T20:56:37.083Z,99.90
2018-08-22T20:59:05.895Z,99.90
2018-08-22T21:01:34.747Z,99.90
2018-08-22T21:04:03.602Z,99.90
2018-08-22T21:06:33.159Z,99.90
2018-08-22T21:09:01.984Z,99.90
2018-08-22T21:11:30.839Z,99.90
2018-08-22T21:13:59.644Z,99.90
2018-08-22T21:16:28.407Z,99.90
2018-08-22T21:18:57.256Z,99.90
2018-08-22T21:21:26.095Z,99.90
2018-08-22T21:23:54.915Z,99.90
2018-08-22T21:26:36.671Z,99.90
2018-08-22T21:29:05.693Z,99.90
2018-08-22T21:31:35.076Z,99.90
2018-08-22T21:34:12.975Z,99.90
2018-08-22T21:36:44.346Z,99.90
2018-08-22T21:39:18.585Z,99.90
2018-08-22T21:41:47.922Z,99.90
2018-08-22T21:44:18.972Z,99.90
2018-08-22T21:46:55.166Z,99.90
2018-08-22T21:49:24.532Z,99.90
2018-08-22T21:51:55.432Z,99.90
2018-08-22T21:54:25.199Z,99.90
2018-08-22T21:56:54.059Z,99.90
2018-08-22T21:59:22.912Z,99.90
2018-08-22T22:01:57.164Z,99.90
2018-08-22T22:04:31.131Z,99.90
2018-08-22T22:06:59.944Z,99.90
2018-08-22T22:09:28.748Z,99.90
2018-08-22T22:11:58.075Z,99.90
2018-08-22T22:14:28.011Z,99.90
2018-08-22T22:16:58.520Z,99.90
2018-08-22T22:19:29.343Z,99.90
2018-08-22T22:21:58.192Z,99.90
2018-08-22T22:24:27.032Z,99.90
2018-08-22T22:26:55.902Z,99.90
2018-08-22T22:29:27.000Z,99.90
2018-08-22T22:31:55.886Z,99.90
2018-08-22T22:34:25.083Z,99.90
2018-08-22T22:36:53.996Z,99.90
2018-08-22T22:39:36.167Z,99.90
2018-08-22T22:42:14.248Z,99.90
2018-08-22T22:44:47.461Z,99.90
2018-08-22T22:47:21.660Z,99.90
2018-08-22T22:49:51.185Z,99.90
2018-08-22T22:52:30.488Z,99.90
2018-08-22T22:55:00.511Z,99.90
2018-08-22T22:57:31.015Z,99.90
2018-08-22T23:00:00.560Z,99.90
2018-08-22T23:02:29.835Z,99.90
2018-08-22T23:04:59.387Z,99.90
2018-08-22T23:07:29.894Z,99.90
2018-08-22T23:10:02.873Z,99.90
2018-08-22T23:12:47.051Z,99.90
2018-08-22T23:15:22.160Z,99.90
2018-08-22T23:17:53.916Z,99.90
2018-08-22T23:20:27.133Z,99.90
2018-08-22T23:22:56.195Z,99.90
2018-08-22T23:25:25.331Z,99.90
2018-08-22T23:27:54.107Z,99.90
2018-08-22T23:30:27.395Z,99.90
2018-08-22T23:32:56.252Z,99.90
2018-08-22T23:35:26.732Z,99.90
2018-08-22T23:38:03.772Z,99.90
2018-08-22T23:40:34.539Z,99.90
2018-08-22T23:43:03.372Z,99.90
2018-08-22T23:45:35.640Z,99.90
2018-08-22T23:48:05.446Z,99.90
2018-08-22T23:50:44.098Z,99.90
2018-08-22T23:53:12.888Z,99.90
2018-08-22T23:55:41.689Z,99.90
2018-08-22T23:58:10.495Z,99.90
